JAL526 RJCC-RJTT
Flight info
| Callsign | JAL526 |
|---|---|
| Flight time | 1h 19m |
| Altitude | 40000 |
| Route | TOBBY Y10 GODIN |
| Aircraft | A359/H-SDE2E3GHIJ3J4J5LM1ORWXY/LB1D1 |
Departure
| Time | 2026-05-06 11:23 |
|---|---|
| Airport | New Chitose Airport (RJCC) |
Arrival
| Time | 2026-05-06 12:42 |
|---|---|
| Airport | Tokyo Haneda International Airport (RJTT) |
| Time | Latitude | Longitude | Altitude | Speed | Heading |
|---|---|---|---|---|---|
| 2026-05-06 11:01 | 42.78608 | 141.68248 | 98 ft | 0 kts | 295° |
| 2026-05-06 11:12 | 42.78604 | 141.68260 | 95 ft | 4 kts | 289° |
| 2026-05-06 11:12 | 42.78595 | 141.68304 | 93 ft | 3 kts | 294° |
| 2026-05-06 11:12 | 42.78585 | 141.68331 | 94 ft | 4 kts | 310° |
| 2026-05-06 11:12 | 42.78569 | 141.68351 | 94 ft | 4 kts | 344° |
| 2026-05-06 11:13 | 42.78556 | 141.68355 | 93 ft | 4 kts | 10° |
| 2026-05-06 11:13 | 42.78532 | 141.68344 | 94 ft | 4 kts | 30° |
| 2026-05-06 11:13 | 42.78526 | 141.68339 | 94 ft | 0 kts | 30° |
| 2026-05-06 11:16 | 42.78527 | 141.68340 | 94 ft | 2 kts | 30° |
| 2026-05-06 11:17 | 42.78550 | 141.68357 | 93 ft | 5 kts | 26° |
| 2026-05-06 11:17 | 42.78596 | 141.68382 | 93 ft | 9 kts | 20° |
| 2026-05-06 11:17 | 42.78663 | 141.68405 | 95 ft | 11 kts | 11° |
| 2026-05-06 11:17 | 42.78741 | 141.68418 | 93 ft | 10 kts | 4° |
| 2026-05-06 11:18 | 42.78783 | 141.68453 | 92 ft | 8 kts | 56° |
| 2026-05-06 11:18 | 42.78798 | 141.68521 | 97 ft | 7 kts | 82° |
| 2026-05-06 11:18 | 42.78803 | 141.68576 | 97 ft | 5 kts | 82° |
| 2026-05-06 11:18 | 42.78809 | 141.68634 | 98 ft | 6 kts | 81° |
| 2026-05-06 11:19 | 42.78811 | 141.68651 | 97 ft | 0 kts | 81° |
| 2026-05-06 11:19 | 42.78811 | 141.68650 | 97 ft | 0 kts | 81° |
| 2026-05-06 11:20 | 42.78812 | 141.68661 | 97 ft | 3 kts | 81° |
| 2026-05-06 11:21 | 42.78819 | 141.68717 | 94 ft | 8 kts | 81° |
| 2026-05-06 11:21 | 42.78824 | 141.68776 | 98 ft | 4 kts | 89° |
| 2026-05-06 11:21 | 42.78813 | 141.68802 | 98 ft | 3 kts | 131° |
| 2026-05-06 11:21 | 42.78787 | 141.68819 | 97 ft | 6 kts | 163° |
| 2026-05-06 11:22 | 42.78755 | 141.68826 | 97 ft | 1 kts | 172° |
| 2026-05-06 11:22 | 42.78739 | 141.68829 | 97 ft | 7 kts | 172° |
| 2026-05-06 11:22 | 42.78523 | 141.68868 | 95 ft | 67 kts | 173° |
| 2026-05-06 11:22 | 42.77820 | 141.68992 | 92 ft | 135 kts | 172° |
| 2026-05-06 11:23 | 42.76762 | 141.69150 | 518 ft | 154 kts | 170° |
| 2026-05-06 11:23 | 42.75756 | 141.69350 | 1521 ft | 141 kts | 172° |
| 2026-05-06 11:23 | 42.74722 | 141.69634 | 1987 ft | 163 kts | 176° |
| 2026-05-06 11:23 | 42.73504 | 141.69877 | 2317 ft | 193 kts | 179° |
| 2026-05-06 11:24 | 42.72058 | 141.70137 | 2707 ft | 223 kts | 179° |
| 2026-05-06 11:24 | 42.70465 | 141.70445 | 3401 ft | 235 kts | 181° |
| 2026-05-06 11:24 | 42.68822 | 141.70776 | 4200 ft | 242 kts | 182° |
| 2026-05-06 11:24 | 42.67130 | 141.71109 | 5023 ft | 248 kts | 182° |
| 2026-05-06 11:25 | 42.65396 | 141.71453 | 5827 ft | 255 kts | 182° |
| 2026-05-06 11:25 | 42.63610 | 141.71806 | 6688 ft | 263 kts | 181° |
| 2026-05-06 11:25 | 42.61808 | 141.72061 | 7512 ft | 265 kts | 185° |
| 2026-05-06 11:25 | 42.59922 | 141.72187 | 8363 ft | 270 kts | 186° |
| 2026-05-06 11:26 | 42.58044 | 141.72291 | 9198 ft | 277 kts | 186° |
| 2026-05-06 11:26 | 42.56098 | 141.72400 | 10025 ft | 283 kts | 185° |
| 2026-05-06 11:26 | 42.54081 | 141.72503 | 10533 ft | 301 kts | 185° |
| 2026-05-06 11:26 | 42.51904 | 141.72612 | 10891 ft | 324 kts | 184° |
| 2026-05-06 11:27 | 42.49590 | 141.72735 | 11394 ft | 340 kts | 184° |
| 2026-05-06 11:27 | 42.47197 | 141.72873 | 12133 ft | 348 kts | 183° |
| 2026-05-06 11:27 | 42.44757 | 141.73015 | 12934 ft | 354 kts | 183° |
| 2026-05-06 11:27 | 42.42276 | 141.73160 | 13731 ft | 360 kts | 183° |
| 2026-05-06 11:28 | 42.39752 | 141.73305 | 14488 ft | 364 kts | 183° |
| 2026-05-06 11:28 | 42.37210 | 141.73450 | 15247 ft | 368 kts | 183° |
| 2026-05-06 11:28 | 42.34627 | 141.73596 | 16018 ft | 372 kts | 183° |
| 2026-05-06 11:28 | 42.32030 | 141.73743 | 16778 ft | 376 kts | 183° |
| 2026-05-06 11:29 | 42.29434 | 141.73890 | 17511 ft | 380 kts | 183° |
| 2026-05-06 11:29 | 42.26775 | 141.74040 | 18259 ft | 385 kts | 183° |
| 2026-05-06 11:29 | 42.24089 | 141.74192 | 18926 ft | 389 kts | 182° |
| 2026-05-06 11:29 | 42.21367 | 141.74348 | 19622 ft | 393 kts | 183° |
| 2026-05-06 11:30 | 42.18626 | 141.74501 | 20352 ft | 396 kts | 183° |
| 2026-05-06 11:30 | 42.15863 | 141.74656 | 21053 ft | 400 kts | 183° |
| 2026-05-06 11:30 | 42.13068 | 141.74815 | 21724 ft | 404 kts | 183° |
| 2026-05-06 11:30 | 42.10239 | 141.74971 | 22420 ft | 408 kts | 183° |
| 2026-05-06 11:31 | 42.07390 | 141.75127 | 23106 ft | 411 kts | 183° |
| 2026-05-06 11:31 | 42.04517 | 141.75286 | 23740 ft | 416 kts | 183° |
| 2026-05-06 11:31 | 42.01613 | 141.75443 | 24291 ft | 420 kts | 183° |
| 2026-05-06 11:31 | 41.98666 | 141.75606 | 24840 ft | 425 kts | 182° |
| 2026-05-06 11:32 | 41.95696 | 141.75772 | 25401 ft | 429 kts | 182° |
| 2026-05-06 11:32 | 41.92700 | 141.75941 | 25952 ft | 433 kts | 182° |
| 2026-05-06 11:32 | 41.89665 | 141.76130 | 26482 ft | 438 kts | 181° |
| 2026-05-06 11:32 | 41.86612 | 141.76390 | 27018 ft | 442 kts | 181° |
| 2026-05-06 11:33 | 41.83560 | 141.76688 | 27522 ft | 447 kts | 180° |
| 2026-05-06 11:33 | 41.80434 | 141.77004 | 28026 ft | 452 kts | 180° |
| 2026-05-06 11:33 | 41.77289 | 141.77323 | 28545 ft | 456 kts | 180° |
| 2026-05-06 11:33 | 41.74116 | 141.77636 | 29041 ft | 459 kts | 180° |
| 2026-05-06 11:34 | 41.70914 | 141.77943 | 29543 ft | 463 kts | 180° |
| 2026-05-06 11:34 | 41.67683 | 141.78244 | 30011 ft | 468 kts | 180° |
| 2026-05-06 11:34 | 41.64422 | 141.78542 | 30424 ft | 471 kts | 180° |
| 2026-05-06 11:34 | 41.61129 | 141.78850 | 30824 ft | 476 kts | 180° |
| 2026-05-06 11:35 | 41.57824 | 141.79159 | 31249 ft | 478 kts | 180° |
| 2026-05-06 11:35 | 41.54491 | 141.79466 | 31635 ft | 482 kts | 180° |
| 2026-05-06 11:35 | 41.51147 | 141.79529 | 31999 ft | 480 kts | 188° |
| 2026-05-06 11:35 | 41.47831 | 141.78965 | 32367 ft | 477 kts | 196° |
| 2026-05-06 11:36 | 41.44577 | 141.78056 | 32727 ft | 479 kts | 198° |
| 2026-05-06 11:36 | 41.41326 | 141.77035 | 33071 ft | 480 kts | 199° |
| 2026-05-06 11:36 | 41.38114 | 141.75972 | 33396 ft | 483 kts | 199° |
| 2026-05-06 11:36 | 41.34852 | 141.74875 | 33715 ft | 485 kts | 199° |
| 2026-05-06 11:37 | 41.31568 | 141.73776 | 34023 ft | 488 kts | 199° |
| 2026-05-06 11:37 | 41.28266 | 141.72679 | 34309 ft | 490 kts | 199° |
| 2026-05-06 11:37 | 41.24969 | 141.71600 | 34771 ft | 486 kts | 199° |
| 2026-05-06 11:37 | 41.21693 | 141.70540 | 35307 ft | 481 kts | 199° |
| 2026-05-06 11:38 | 41.18447 | 141.69496 | 35810 ft | 478 kts | 199° |
| 2026-05-06 11:38 | 41.15224 | 141.68459 | 36263 ft | 475 kts | 199° |
| 2026-05-06 11:38 | 41.12020 | 141.67429 | 36676 ft | 473 kts | 199° |
| 2026-05-06 11:38 | 41.08828 | 141.66400 | 37061 ft | 471 kts | 200° |
| 2026-05-06 11:39 | 41.05641 | 141.65372 | 37466 ft | 469 kts | 200° |
| 2026-05-06 11:39 | 41.02476 | 141.64351 | 37882 ft | 467 kts | 200° |
| 2026-05-06 11:39 | 40.99324 | 141.63334 | 38295 ft | 465 kts | 200° |
| 2026-05-06 11:39 | 40.96223 | 141.62338 | 38683 ft | 462 kts | 200° |
| 2026-05-06 11:40 | 40.93064 | 141.61326 | 38987 ft | 460 kts | 200° |
| 2026-05-06 11:40 | 40.89993 | 141.60343 | 39198 ft | 460 kts | 200° |
| 2026-05-06 11:40 | 40.86876 | 141.59345 | 39372 ft | 461 kts | 200° |
| 2026-05-06 11:40 | 40.83753 | 141.58343 | 39576 ft | 460 kts | 200° |
| 2026-05-06 11:41 | 40.80641 | 141.57346 | 39796 ft | 460 kts | 200° |
| 2026-05-06 11:41 | 40.77534 | 141.56351 | 39993 ft | 460 kts | 201° |
| 2026-05-06 11:41 | 40.74411 | 141.55350 | 40046 ft | 462 kts | 200° |
| 2026-05-06 11:42 | 40.68156 | 141.53358 | 40052 ft | 462 kts | 200° |
| 2026-05-06 11:42 | 40.61908 | 141.51375 | 40051 ft | 461 kts | 201° |
| 2026-05-06 11:43 | 40.55674 | 141.49396 | 40048 ft | 461 kts | 201° |
| 2026-05-06 11:43 | 40.49477 | 141.47430 | 40054 ft | 460 kts | 201° |
| 2026-05-06 11:44 | 40.40136 | 141.44474 | 40064 ft | 460 kts | 201° |
| 2026-05-06 11:44 | 40.33906 | 141.42511 | 40067 ft | 460 kts | 201° |
| 2026-05-06 11:45 | 40.27689 | 141.40557 | 40075 ft | 459 kts | 201° |
| 2026-05-06 11:45 | 40.21477 | 141.38609 | 40076 ft | 458 kts | 201° |
| 2026-05-06 11:46 | 40.15326 | 141.36681 | 40084 ft | 457 kts | 201° |
| 2026-05-06 11:46 | 40.09146 | 141.34749 | 40086 ft | 456 kts | 201° |
| 2026-05-06 11:47 | 40.02966 | 141.32819 | 40093 ft | 456 kts | 201° |
| 2026-05-06 11:47 | 39.96878 | 141.30904 | 40092 ft | 454 kts | 201° |
| 2026-05-06 11:48 | 39.91908 | 141.29256 | 40101 ft | 454 kts | 202° |
| 2026-05-06 11:48 | 39.85790 | 141.27214 | 40097 ft | 454 kts | 202° |
| 2026-05-06 11:49 | 39.79681 | 141.25200 | 40119 ft | 452 kts | 202° |
| 2026-05-06 11:49 | 39.73586 | 141.23205 | 40110 ft | 451 kts | 202° |
| 2026-05-06 11:50 | 39.67499 | 141.21216 | 40111 ft | 451 kts | 202° |
| 2026-05-06 11:50 | 39.61464 | 141.19248 | 40116 ft | 450 kts | 202° |
| 2026-05-06 11:51 | 39.55382 | 141.17267 | 40119 ft | 450 kts | 202° |
| 2026-05-06 11:51 | 39.49313 | 141.15293 | 40121 ft | 450 kts | 202° |
| 2026-05-06 11:52 | 39.43239 | 141.13323 | 40122 ft | 449 kts | 202° |
| 2026-05-06 11:52 | 39.37157 | 141.11437 | 40123 ft | 450 kts | 201° |
| 2026-05-06 11:53 | 39.31059 | 141.09622 | 40120 ft | 449 kts | 201° |
| 2026-05-06 11:53 | 39.25013 | 141.07820 | 40123 ft | 448 kts | 201° |
| 2026-05-06 11:54 | 39.18948 | 141.06002 | 40123 ft | 447 kts | 201° |
| 2026-05-06 11:54 | 39.12903 | 141.04186 | 40120 ft | 446 kts | 202° |
| 2026-05-06 11:55 | 39.06869 | 141.02376 | 40125 ft | 445 kts | 202° |
| 2026-05-06 11:55 | 39.00826 | 141.00566 | 40121 ft | 445 kts | 202° |
| 2026-05-06 11:56 | 38.94800 | 140.98766 | 40120 ft | 444 kts | 202° |
| 2026-05-06 11:56 | 38.88783 | 140.96973 | 40128 ft | 444 kts | 202° |
| 2026-05-06 11:57 | 38.82776 | 140.95185 | 40119 ft | 443 kts | 202° |
| 2026-05-06 11:57 | 38.76776 | 140.93404 | 40121 ft | 442 kts | 202° |
| 2026-05-06 11:58 | 38.70789 | 140.91637 | 40120 ft | 441 kts | 202° |
| 2026-05-06 11:58 | 38.64819 | 140.89865 | 40122 ft | 440 kts | 202° |
| 2026-05-06 11:59 | 38.58860 | 140.88100 | 40114 ft | 439 kts | 202° |
| 2026-05-06 11:59 | 38.52954 | 140.86362 | 40119 ft | 438 kts | 202° |
| 2026-05-06 12:00 | 38.47010 | 140.84611 | 40117 ft | 437 kts | 202° |
| 2026-05-06 12:00 | 38.41088 | 140.82865 | 40110 ft | 436 kts | 202° |
| 2026-05-06 12:01 | 38.35170 | 140.81126 | 40107 ft | 435 kts | 202° |
| 2026-05-06 12:01 | 38.30270 | 140.79690 | 40106 ft | 433 kts | 202° |
| 2026-05-06 12:02 | 38.23449 | 140.77696 | 40104 ft | 431 kts | 203° |
| 2026-05-06 12:02 | 38.17607 | 140.76002 | 40099 ft | 429 kts | 203° |
| 2026-05-06 12:03 | 38.12755 | 140.74581 | 40101 ft | 426 kts | 203° |
| 2026-05-06 12:03 | 38.07016 | 140.72904 | 40109 ft | 425 kts | 203° |
| 2026-05-06 12:04 | 38.01263 | 140.71228 | 40112 ft | 424 kts | 204° |
| 2026-05-06 12:04 | 37.95534 | 140.69562 | 40116 ft | 422 kts | 204° |
| 2026-05-06 12:05 | 37.89805 | 140.67902 | 40124 ft | 421 kts | 204° |
| 2026-05-06 12:05 | 37.84113 | 140.66258 | 40124 ft | 418 kts | 204° |
| 2026-05-06 12:06 | 37.78453 | 140.64626 | 40124 ft | 416 kts | 204° |
| 2026-05-06 12:06 | 37.72855 | 140.63012 | 40129 ft | 413 kts | 204° |
| 2026-05-06 12:07 | 37.70054 | 140.62203 | 39962 ft | 412 kts | 205° |
| 2026-05-06 12:07 | 37.67268 | 140.61404 | 39479 ft | 409 kts | 205° |
| 2026-05-06 12:07 | 37.64501 | 140.60610 | 38994 ft | 405 kts | 206° |
| 2026-05-06 12:07 | 37.61766 | 140.59829 | 38442 ft | 401 kts | 206° |
| 2026-05-06 12:08 | 37.59054 | 140.59051 | 37723 ft | 400 kts | 206° |
| 2026-05-06 12:08 | 37.56337 | 140.58262 | 36902 ft | 403 kts | 206° |
| 2026-05-06 12:08 | 37.53598 | 140.57467 | 36222 ft | 402 kts | 205° |
| 2026-05-06 12:08 | 37.50867 | 140.56677 | 35560 ft | 402 kts | 205° |
| 2026-05-06 12:09 | 37.48135 | 140.55889 | 34883 ft | 403 kts | 205° |
| 2026-05-06 12:09 | 37.45395 | 140.55100 | 34129 ft | 405 kts | 205° |
| 2026-05-06 12:09 | 37.42641 | 140.54307 | 33285 ft | 407 kts | 204° |
| 2026-05-06 12:09 | 37.39876 | 140.53512 | 32646 ft | 406 kts | 204° |
| 2026-05-06 12:10 | 37.37142 | 140.52737 | 32127 ft | 401 kts | 204° |
| 2026-05-06 12:10 | 37.34427 | 140.51966 | 31579 ft | 399 kts | 204° |
| 2026-05-06 12:10 | 37.31724 | 140.51197 | 31013 ft | 394 kts | 204° |
| 2026-05-06 12:10 | 37.29057 | 140.50432 | 30464 ft | 393 kts | 203° |
| 2026-05-06 12:11 | 37.26388 | 140.49663 | 29870 ft | 393 kts | 204° |
| 2026-05-06 12:11 | 37.23739 | 140.48903 | 29286 ft | 392 kts | 202° |
| 2026-05-06 12:11 | 37.21120 | 140.48158 | 28855 ft | 387 kts | 202° |
| 2026-05-06 12:11 | 37.18475 | 140.47415 | 28349 ft | 382 kts | 202° |
| 2026-05-06 12:12 | 37.15940 | 140.46708 | 27848 ft | 377 kts | 202° |
| 2026-05-06 12:12 | 37.13382 | 140.45980 | 27322 ft | 377 kts | 202° |
| 2026-05-06 12:12 | 37.10802 | 140.45241 | 26794 ft | 376 kts | 202° |
| 2026-05-06 12:12 | 37.08281 | 140.44515 | 26280 ft | 379 kts | 201° |
| 2026-05-06 12:13 | 37.05708 | 140.43779 | 25751 ft | 379 kts | 200° |
| 2026-05-06 12:13 | 37.03120 | 140.43041 | 25218 ft | 381 kts | 200° |
| 2026-05-06 12:13 | 37.00537 | 140.42291 | 24664 ft | 380 kts | 200° |
| 2026-05-06 12:13 | 36.97952 | 140.41573 | 24119 ft | 383 kts | 199° |
| 2026-05-06 12:14 | 36.95337 | 140.40841 | 23531 ft | 385 kts | 199° |
| 2026-05-06 12:14 | 36.92727 | 140.40110 | 22914 ft | 384 kts | 199° |
| 2026-05-06 12:14 | 36.90153 | 140.39386 | 22339 ft | 384 kts | 198° |
| 2026-05-06 12:14 | 36.87544 | 140.38668 | 21762 ft | 385 kts | 198° |
| 2026-05-06 12:15 | 36.84935 | 140.37947 | 21179 ft | 381 kts | 199° |
| 2026-05-06 12:15 | 36.82397 | 140.37211 | 20602 ft | 375 kts | 198° |
| 2026-05-06 12:15 | 36.79854 | 140.36479 | 20033 ft | 376 kts | 198° |
| 2026-05-06 12:15 | 36.77291 | 140.35758 | 19449 ft | 377 kts | 197° |
| 2026-05-06 12:16 | 36.74727 | 140.35045 | 18862 ft | 378 kts | 197° |
| 2026-05-06 12:16 | 36.72141 | 140.34365 | 18226 ft | 380 kts | 194° |
| 2026-05-06 12:16 | 36.69526 | 140.33809 | 17595 ft | 381 kts | 192° |
| 2026-05-06 12:16 | 36.66903 | 140.33319 | 16982 ft | 380 kts | 191° |
| 2026-05-06 12:17 | 36.64291 | 140.32848 | 16436 ft | 378 kts | 191° |
| 2026-05-06 12:17 | 36.61696 | 140.32378 | 15986 ft | 377 kts | 191° |
| 2026-05-06 12:17 | 36.59107 | 140.31884 | 15543 ft | 377 kts | 191° |
| 2026-05-06 12:17 | 36.56525 | 140.31375 | 15107 ft | 375 kts | 191° |
| 2026-05-06 12:18 | 36.53953 | 140.30863 | 14830 ft | 373 kts | 191° |
| 2026-05-06 12:18 | 36.51392 | 140.30350 | 14587 ft | 372 kts | 191° |
| 2026-05-06 12:18 | 36.48833 | 140.29839 | 14352 ft | 372 kts | 191° |
| 2026-05-06 12:18 | 36.46278 | 140.29329 | 14111 ft | 371 kts | 191° |
| 2026-05-06 12:19 | 36.43730 | 140.28819 | 13866 ft | 370 kts | 191° |
| 2026-05-06 12:19 | 36.41186 | 140.28312 | 13607 ft | 370 kts | 191° |
| 2026-05-06 12:19 | 36.38684 | 140.27830 | 13346 ft | 367 kts | 191° |
| 2026-05-06 12:19 | 36.36171 | 140.27330 | 13091 ft | 365 kts | 191° |
| 2026-05-06 12:20 | 36.33667 | 140.26823 | 12828 ft | 363 kts | 191° |
| 2026-05-06 12:20 | 36.31179 | 140.26326 | 12584 ft | 361 kts | 191° |
| 2026-05-06 12:20 | 36.28712 | 140.25833 | 12325 ft | 358 kts | 191° |
| 2026-05-06 12:20 | 36.26251 | 140.25344 | 12075 ft | 357 kts | 191° |
| 2026-05-06 12:21 | 36.23807 | 140.24855 | 11828 ft | 354 kts | 192° |
| 2026-05-06 12:21 | 36.21378 | 140.24368 | 11581 ft | 353 kts | 191° |
| 2026-05-06 12:21 | 36.18964 | 140.23894 | 11335 ft | 350 kts | 191° |
| 2026-05-06 12:21 | 36.16565 | 140.23423 | 11094 ft | 348 kts | 191° |
| 2026-05-06 12:22 | 36.14170 | 140.22947 | 10990 ft | 347 kts | 192° |
| 2026-05-06 12:22 | 36.11797 | 140.22474 | 10980 ft | 346 kts | 192° |
| 2026-05-06 12:22 | 36.09416 | 140.22001 | 10983 ft | 346 kts | 192° |
| 2026-05-06 12:22 | 36.07029 | 140.21532 | 10980 ft | 346 kts | 192° |
| 2026-05-06 12:23 | 36.04657 | 140.21062 | 10982 ft | 345 kts | 192° |
| 2026-05-06 12:23 | 36.02280 | 140.20630 | 10981 ft | 345 kts | 189° |
| 2026-05-06 12:23 | 35.99903 | 140.20483 | 10984 ft | 347 kts | 184° |
| 2026-05-06 12:23 | 35.97499 | 140.20448 | 10979 ft | 339 kts | 184° |
| 2026-05-06 12:24 | 35.95215 | 140.20426 | 10979 ft | 319 kts | 184° |
| 2026-05-06 12:24 | 35.93067 | 140.20401 | 10976 ft | 299 kts | 185° |
| 2026-05-06 12:24 | 35.91042 | 140.20376 | 10982 ft | 282 kts | 185° |
| 2026-05-06 12:24 | 35.89111 | 140.20343 | 10975 ft | 275 kts | 186° |
| 2026-05-06 12:25 | 35.87223 | 140.20309 | 10975 ft | 265 kts | 186° |
| 2026-05-06 12:25 | 35.85360 | 140.20276 | 10986 ft | 271 kts | 186° |
| 2026-05-06 12:25 | 35.83474 | 140.20243 | 10941 ft | 267 kts | 186° |
| 2026-05-06 12:25 | 35.81616 | 140.20213 | 10489 ft | 269 kts | 186° |
| 2026-05-06 12:26 | 35.79769 | 140.20178 | 9859 ft | 270 kts | 186° |
| 2026-05-06 12:26 | 35.77885 | 140.20146 | 9184 ft | 267 kts | 185° |
| 2026-05-06 12:26 | 35.76079 | 140.20204 | 8976 ft | 249 kts | 182° |
| 2026-05-06 12:26 | 35.74499 | 140.20303 | 8849 ft | 231 kts | 182° |
| 2026-05-06 12:27 | 35.72921 | 140.20387 | 8743 ft | 230 kts | 183° |
| 2026-05-06 12:27 | 35.71320 | 140.20464 | 8635 ft | 230 kts | 183° |
| 2026-05-06 12:27 | 35.69724 | 140.20543 | 8492 ft | 229 kts | 183° |
| 2026-05-06 12:27 | 35.68163 | 140.20618 | 8376 ft | 229 kts | 183° |
| 2026-05-06 12:28 | 35.66569 | 140.20692 | 8277 ft | 227 kts | 183° |
| 2026-05-06 12:28 | 35.65010 | 140.20535 | 8209 ft | 225 kts | 194° |
| 2026-05-06 12:28 | 35.63483 | 140.20164 | 7963 ft | 222 kts | 197° |
| 2026-05-06 12:28 | 35.61979 | 140.19749 | 7715 ft | 223 kts | 197° |
| 2026-05-06 12:29 | 35.60477 | 140.19313 | 7482 ft | 221 kts | 197° |
| 2026-05-06 12:29 | 35.58978 | 140.18886 | 7244 ft | 221 kts | 196° |
| 2026-05-06 12:29 | 35.57448 | 140.18455 | 7011 ft | 230 kts | 196° |
| 2026-05-06 12:29 | 35.55893 | 140.18002 | 6779 ft | 230 kts | 196° |
| 2026-05-06 12:30 | 35.54336 | 140.17545 | 6544 ft | 229 kts | 196° |
| 2026-05-06 12:30 | 35.52795 | 140.17094 | 6292 ft | 227 kts | 196° |
| 2026-05-06 12:30 | 35.51264 | 140.16646 | 6042 ft | 226 kts | 196° |
| 2026-05-06 12:30 | 35.49729 | 140.16199 | 5792 ft | 226 kts | 195° |
| 2026-05-06 12:31 | 35.48196 | 140.15758 | 5543 ft | 226 kts | 195° |
| 2026-05-06 12:31 | 35.46694 | 140.15325 | 5293 ft | 224 kts | 195° |
| 2026-05-06 12:31 | 35.45155 | 140.14880 | 5045 ft | 223 kts | 195° |
| 2026-05-06 12:31 | 35.43668 | 140.14444 | 4812 ft | 222 kts | 195° |
| 2026-05-06 12:32 | 35.42129 | 140.13994 | 4568 ft | 236 kts | 195° |
| 2026-05-06 12:32 | 35.40511 | 140.13525 | 4314 ft | 241 kts | 195° |
| 2026-05-06 12:32 | 35.38880 | 140.13051 | 4077 ft | 239 kts | 195° |
| 2026-05-06 12:32 | 35.37261 | 140.12584 | 3993 ft | 239 kts | 195° |
| 2026-05-06 12:33 | 35.35641 | 140.12114 | 3986 ft | 239 kts | 195° |
| 2026-05-06 12:33 | 35.34018 | 140.11645 | 4013 ft | 240 kts | 194° |
| 2026-05-06 12:33 | 35.32385 | 140.11174 | 4014 ft | 240 kts | 194° |
| 2026-05-06 12:33 | 35.30775 | 140.10640 | 4016 ft | 240 kts | 201° |
| 2026-05-06 12:34 | 35.29351 | 140.09599 | 4014 ft | 239 kts | 223° |
| 2026-05-06 12:34 | 35.28357 | 140.07977 | 4022 ft | 239 kts | 238° |
| 2026-05-06 12:34 | 35.27541 | 140.06211 | 4012 ft | 238 kts | 240° |
| 2026-05-06 12:34 | 35.26954 | 140.04313 | 4000 ft | 237 kts | 257° |
| 2026-05-06 12:35 | 35.27023 | 140.02365 | 4013 ft | 226 kts | 282° |
| 2026-05-06 12:35 | 35.27645 | 140.00681 | 4003 ft | 216 kts | 296° |
| 2026-05-06 12:35 | 35.28432 | 139.99180 | 3994 ft | 203 kts | 302° |
| 2026-05-06 12:35 | 35.29409 | 139.97984 | 4029 ft | 195 kts | 319° |
| 2026-05-06 12:36 | 35.30562 | 139.97113 | 4030 ft | 196 kts | 326° |
| 2026-05-06 12:36 | 35.31758 | 139.96281 | 4014 ft | 198 kts | 325° |
| 2026-05-06 12:36 | 35.32953 | 139.95439 | 4011 ft | 198 kts | 325° |
| 2026-05-06 12:36 | 35.34151 | 139.94587 | 4008 ft | 198 kts | 324° |
| 2026-05-06 12:37 | 35.35343 | 139.93731 | 4014 ft | 198 kts | 325° |
| 2026-05-06 12:37 | 35.36533 | 139.92885 | 4014 ft | 199 kts | 325° |
| 2026-05-06 12:37 | 35.37736 | 139.92037 | 3824 ft | 198 kts | 325° |
| 2026-05-06 12:37 | 35.38919 | 139.91197 | 3542 ft | 199 kts | 325° |
| 2026-05-06 12:38 | 35.40128 | 139.90340 | 3232 ft | 199 kts | 325° |
| 2026-05-06 12:38 | 35.41329 | 139.89488 | 2929 ft | 198 kts | 325° |
| 2026-05-06 12:38 | 35.42492 | 139.88664 | 2668 ft | 194 kts | 326° |
| 2026-05-06 12:38 | 35.43635 | 139.87856 | 2413 ft | 184 kts | 325° |
| 2026-05-06 12:39 | 35.44717 | 139.87086 | 2166 ft | 176 kts | 325° |
| 2026-05-06 12:39 | 35.45771 | 139.86338 | 1944 ft | 174 kts | 325° |
| 2026-05-06 12:39 | 35.46818 | 139.85593 | 1712 ft | 175 kts | 326° |
| 2026-05-06 12:39 | 35.47867 | 139.84853 | 1467 ft | 172 kts | 326° |
| 2026-05-06 12:40 | 35.48872 | 139.84135 | 1250 ft | 164 kts | 326° |
| 2026-05-06 12:40 | 35.49837 | 139.83449 | 1027 ft | 155 kts | 326° |
| 2026-05-06 12:40 | 35.50750 | 139.82802 | 830 ft | 147 kts | 326° |
| 2026-05-06 12:40 | 35.51610 | 139.82194 | 654 ft | 140 kts | 328° |
| 2026-05-06 12:41 | 35.52455 | 139.81588 | 471 ft | 141 kts | 328° |
| 2026-05-06 12:41 | 35.53303 | 139.80983 | 286 ft | 141 kts | 330° |
| 2026-05-06 12:41 | 35.54167 | 139.80372 | 108 ft | 144 kts | 330° |
| 2026-05-06 12:41 | 35.55013 | 139.79775 | 36 ft | 125 kts | 329° |
| 2026-05-06 12:42 | 35.55506 | 139.79422 | 33 ft | 53 kts | 329° |
| 2026-05-06 12:42 | 35.55728 | 139.79217 | 32 ft | 32 kts | 311° |
| 2026-05-06 12:42 | 35.55793 | 139.79098 | 30 ft | 6 kts | 299° |
| 2026-05-06 12:42 | 35.55818 | 139.79046 | 31 ft | 9 kts | 302° |
| 2026-05-06 12:43 | 35.55857 | 139.78965 | 30 ft | 13 kts | 300° |
| 2026-05-06 12:43 | 35.55922 | 139.78876 | 30 ft | 15 kts | 326° |
| 2026-05-06 12:43 | 35.56018 | 139.78806 | 31 ft | 17 kts | 329° |
| 2026-05-06 12:43 | 35.56124 | 139.78731 | 30 ft | 17 kts | 330° |
| 2026-05-06 12:44 | 35.56215 | 139.78666 | 30 ft | 15 kts | 330° |
| 2026-05-06 12:44 | 35.56312 | 139.78597 | 31 ft | 16 kts | 330° |
| 2026-05-06 12:44 | 35.56361 | 139.78563 | 31 ft | 0 kts | 330° |
| 2026-05-06 12:45 | 35.56400 | 139.78534 | 32 ft | 5 kts | 330° |
| 2026-05-06 12:46 | 35.56432 | 139.78512 | 32 ft | 6 kts | 330° |
| 2026-05-06 12:46 | 35.56469 | 139.78479 | 32 ft | 6 kts | 308° |
| 2026-05-06 12:46 | 35.56465 | 139.78430 | 32 ft | 7 kts | 251° |
| 2026-05-06 12:46 | 35.56440 | 139.78374 | 31 ft | 8 kts | 240° |
| 2026-05-06 12:47 | 35.56409 | 139.78307 | 31 ft | 10 kts | 240° |
| 2026-05-06 12:47 | 35.56372 | 139.78231 | 31 ft | 11 kts | 240° |
| 2026-05-06 12:47 | 35.56331 | 139.78143 | 31 ft | 13 kts | 240° |
| 2026-05-06 12:47 | 35.56283 | 139.78042 | 31 ft | 15 kts | 240° |
| 2026-05-06 12:48 | 35.56227 | 139.77922 | 32 ft | 17 kts | 239° |
| 2026-05-06 12:48 | 35.56164 | 139.77791 | 31 ft | 19 kts | 240° |
| 2026-05-06 12:48 | 35.56095 | 139.77645 | 30 ft | 21 kts | 240° |
| 2026-05-06 12:48 | 35.56045 | 139.77540 | 29 ft | 19 kts | 240° |
| 2026-05-06 12:49 | 35.55976 | 139.77394 | 30 ft | 12 kts | 235° |
| 2026-05-06 12:49 | 35.55917 | 139.77351 | 30 ft | 9 kts | 173° |
| 2026-05-06 12:49 | 35.55853 | 139.77394 | 29 ft | 12 kts | 151° |
| 2026-05-06 12:49 | 35.55800 | 139.77430 | 28 ft | 14 kts | 150° |
| 2026-05-06 12:50 | 35.55708 | 139.77495 | 28 ft | 16 kts | 150° |
| 2026-05-06 12:50 | 35.55607 | 139.77567 | 28 ft | 18 kts | 149° |
| 2026-05-06 12:50 | 35.55491 | 139.77649 | 28 ft | 20 kts | 149° |
| 2026-05-06 12:50 | 35.55367 | 139.77738 | 28 ft | 21 kts | 150° |
| 2026-05-06 12:51 | 35.55261 | 139.77812 | 28 ft | 16 kts | 150° |
| 2026-05-06 12:51 | 35.55177 | 139.77872 | 30 ft | 12 kts | 149° |
| 2026-05-06 12:51 | 35.55108 | 139.77922 | 29 ft | 11 kts | 149° |
| 2026-05-06 12:51 | 35.55056 | 139.77959 | 29 ft | 6 kts | 150° |
| 2026-05-06 12:52 | 35.55036 | 139.77973 | 29 ft | 0 kts | 150° |
| 2026-05-06 12:52 | 35.55031 | 139.77976 | 29 ft | 3 kts | 150° |
| 2026-05-06 12:53 | 35.54989 | 139.78005 | 29 ft | 10 kts | 149° |
| 2026-05-06 12:53 | 35.54915 | 139.78058 | 29 ft | 13 kts | 150° |
| 2026-05-06 12:53 | 35.54838 | 139.78113 | 29 ft | 12 kts | 149° |
| 2026-05-06 12:53 | 35.54771 | 139.78160 | 30 ft | 10 kts | 149° |
| 2026-05-06 12:54 | 35.54712 | 139.78202 | 30 ft | 10 kts | 150° |
| 2026-05-06 12:54 | 35.54663 | 139.78250 | 30 ft | 6 kts | 115° |
| 2026-05-06 12:54 | 35.54676 | 139.78281 | 28 ft | 5 kts | 46° |
| 2026-05-06 12:54 | 35.54714 | 139.78307 | 29 ft | 7 kts | 22° |
| 2026-05-06 12:55 | 35.54747 | 139.78321 | 29 ft | 4 kts | 20° |
| 2026-05-06 12:55 | 35.54762 | 139.78328 | 30 ft | 0 kts | 20° |
| 2026-05-06 12:55 | 35.54767 | 139.78331 | 30 ft | 0 kts | 20° |